Burlington, Maine
Current Conditions -  °F | °C
As of 9:53 PM on Friday 28 Nov 2014 (Local Time) from KMLT Reporting Station
Broken Clouds Broken Clouds  
Wind Chill: 22°   Ceiling: 2900
Heat Index: 22°   Visibility: 10mi
Dew Point: 15°   Wind: 3mph
Humidity: 75%   Direction: 310°NW
Pressure: 30.08"   Gusts: NA
Location:  45.21°N, 68.43°W
Report Text: KMLT 290253Z AUTO 31003KT 10SM BKN029 M06/M09 A3008 RMK AO2 SLP198 I1000 I3000 T10561094 51004
Loading
Personal Weather Stations






























Interactive Weather Map New forecast layout! Learn more

10-Day Weather Forecast

Advertisements
Track Severe Weather on mobile